Scout — WCZ5277 — position and weather

sailwx.info

Track history (hours):
 
Tides and Currents Weather Stations Pressure Air Temp Water Temp Dewpoint Dewpoint Depression Visibility Wind Speed Wind Dir Waves Ship Positions

Scout

Owner: ERGON MARINE & INDUSTRIAL SUPPLY, VICKSBURG, MS. More information available from US FCC via Universal Licensing System.

Last reported at 2016-Feb-10 02:33 UTC. Time now 2016-Feb-10 02:40 UTC.
Position N 32°20' W 090°54'.

Length 14 m.

Type: Towing. MMSI: 367402890.

Date/timePositionNaut miles runAvg speedWind from/ knotsBaromVisibWave heightAir tempDewpointWater temp
2016-Feb-10 02:33N 32°20' W 090°54'0 0.0
2016-Feb-10 01:34N 32°20' W 090°54'0 0.0
2016-Feb-10 00:34N 32°20' W 090°54'0 0.0
2016-Feb-09 23:34N 32°20' W 090°54'0 0.0
2016-Feb-09 22:34N 32°20' W 090°54'0 0.0
2016-Feb-09 21:34N 32°20' W 090°54'0 0.0
2016-Feb-09 20:34N 32°20' W 090°54'0 0.0
2016-Feb-09 19:34N 32°20' W 090°54'0 0.0
2016-Feb-09 18:34N 32°20' W 090°54'0 0.0
2016-Feb-09 17:34N 32°20' W 090°54'0 0.0
2016-Feb-09 16:34N 32°20' W 090°54'0 0.0
2016-Feb-09 15:33N 32°20' W 090°54'0 0.0
2016-Feb-09 07:34N 32°20' W 090°54'0 0.0
2016-Feb-09 06:34N 32°20' W 090°54'0 0.0
2016-Feb-09 05:33N 32°20' W 090°54'0 0.0
2016-Feb-09 04:33N 32°20' W 090°54'0 0.0
2016-Feb-09 03:34N 32°20' W 090°54'0 0.0
2016-Feb-09 02:34N 32°20' W 090°54'0 0.0
2016-Feb-09 01:33N 32°20' W 090°54'0 0.0
2016-Feb-09 00:34N 32°20' W 090°54'4 0.9
2016-Feb-08 20:25N 32°23' W 090°53'1 1.7
2016-Feb-08 19:33N 32°22' W 090°53'4 3.8
2016-Feb-08 18:33N 32°18' W 090°55'0 0.3
2016-Feb-08 17:33N 32°18' W 090°55'1 1.0
2016-Feb-08 16:33N 32°19' W 090°54'4 4.4
2016-Feb-08 15:33N 32°23' W 090°53'1 0.6
2016-Feb-08 14:33N 32°23' W 090°53'1 0.6
2016-Feb-08 13:33N 32°23' W 090°53'3 2.9
2016-Feb-08 12:33N 32°20' W 090°54'2 2.4
2016-Feb-08 11:33N 32°18' W 090°56'2 1.5
2016-Feb-08 10:33N 32°19' W 090°54'1 0.6
2016-Feb-08 09:33N 32°20' W 090°54'0 0.0
2016-Feb-08 08:33N 32°20' W 090°54'0 0.0
2016-Feb-08 07:33N 32°20' W 090°54'0 0.0
2016-Feb-08 06:33N 32°20' W 090°54'0 0.0
2016-Feb-08 05:33N 32°20' W 090°54'0 0.0
2016-Feb-08 04:33N 32°20' W 090°54'0 0.0
2016-Feb-08 03:33N 32°20' W 090°54'0 0.0
2016-Feb-08 02:33N 32°20' W 090°54'2 2.4
2016-Feb-08 01:33N 32°18' W 090°56'1 0.9
2016-Feb-08 00:33N 32°18' W 090°55'2 1.5
2016-Feb-07 23:33N 32°20' W 090°54'0 0.0
2016-Feb-07 22:33N 32°20' W 090°54'0 0.0
2016-Feb-07 21:33N 32°20' W 090°54'0 0.0
2016-Feb-07 20:33N 32°20' W 090°54'0 0.0
2016-Feb-07 19:33N 32°20' W 090°54'0 0.0
2016-Feb-07 18:33N 32°20' W 090°54'0 0.0
2016-Feb-07 17:33N 32°20' W 090°54'3 3.4
2016-Feb-07 16:33N 32°23' W 090°53'0 0.1
2016-Feb-07 15:33N 32°23' W 090°53'0 0.0
2016-Feb-07 14:33N 32°23' W 090°53'1 0.9
2016-Feb-07 13:33N 32°22' W 090°53'2 2.4
2016-Feb-07 12:33N 32°20' W 090°54'0 0.0
2016-Feb-07 11:34N 32°20' W 090°54'0 0.0
2016-Feb-07 10:33N 32°20' W 090°54'1 0.9
2016-Feb-07 09:33N 32°20' W 090°54'0 0.0
2016-Feb-07 08:33N 32°20' W 090°54'0 0.1
2016-Feb-07 07:33N 32°21' W 090°54'3 3.0
2016-Feb-07 06:33N 32°18' W 090°56'0 0.0
2016-Feb-07 05:33N 32°18' W 090°56'0 0.3
2016-Feb-07 04:33N 32°18' W 090°56'0 0.0
2016-Feb-07 03:34N 32°18' W 090°56'2 2.5
2016-Feb-07 02:34N 32°20' W 090°54'1 0.8
2016-Feb-07 01:33N 32°20' W 090°54'0 0.1
2016-Feb-07 00:34N 32°20' W 090°54'1 0.9
2016-Feb-06 23:33N 32°20' W 090°54'3 3.3
2016-Feb-06 22:33N 32°23' W 090°53'3 2.7
2016-Feb-06 21:33N 32°20' W 090°54'3 2.7
2016-Feb-06 20:33N 32°18' W 090°56'0 0.0
2016-Feb-06 19:33N 32°18' W 090°56'0 0.1
2016-Feb-06 18:33N 32°18' W 090°56'3 2.6
2016-Feb-06 17:33N 32°21' W 090°55'1 1.2
2016-Feb-06 16:33N 32°21' W 090°56'0 0.0
2016-Feb-06 15:33N 32°21' W 090°56'0 0.5
2016-Feb-06 14:33N 32°21' W 090°56'2 1.9
2016-Feb-06 13:33N 32°20' W 090°54'0 0.0
2016-Feb-06 12:33N 32°20' W 090°54'0 0.0
2016-Feb-06 11:33N 32°20' W 090°54'0 0.0
2016-Feb-06 10:33N 32°20' W 090°54'0 0.0
2016-Feb-06 09:33N 32°20' W 090°54'0 0.0
2016-Feb-06 08:33N 32°20' W 090°54'3 3.2
2016-Feb-06 07:32N 32°23' W 090°53'3 3.1
2016-Feb-06 06:33N 32°20' W 090°54'2 2.1
2016-Feb-06 05:33N 32°18' W 090°55'0 0.0
2016-Feb-06 04:33N 32°18' W 090°55'2 1.8
2016-Feb-06 03:33N 32°20' W 090°54'3 3.3
2016-Feb-06 02:33N 32°23' W 090°53'0 0.0
2016-Feb-06 01:33N 32°23' W 090°53'3 3.3
2016-Feb-06 00:34N 32°20' W 090°54'0 0.0
2016-Feb-05 23:34N 32°20' W 090°54'0 0.1
2016-Feb-05 22:33N 32°20' W 090°54'1 1.3
2016-Feb-05 21:34N 32°21' W 090°53'3 3.2
2016-Feb-05 20:34N 32°18' W 090°55'0 0.1
2016-Feb-05 19:34N 32°18' W 090°55'2 1.9
2016-Feb-05 18:34N 32°20' W 090°54'3 2.6
2016-Feb-05 17:34N 32°22' W 090°53'2 2.0
2016-Feb-05 16:33N 32°23' W 090°55'0 0.0
2016-Feb-05 15:34N 32°23' W 090°55'3 2.6
2016-Feb-05 14:33N 32°21' W 090°53'1 1.2
2016-Feb-05 13:33N 32°20' W 090°54'0 0.0
2016-Feb-05 12:33N 32°20' W 090°54'0 0.4
2016-Feb-05 11:33N 32°19' W 090°54'2 1.6
2016-Feb-05 10:33N 32°18' W 090°55'0 0.4
2016-Feb-05 09:33N 32°18' W 090°56'0 0.0
2016-Feb-05 08:33N 32°18' W 090°56'2 2.1
2016-Feb-05 07:33N 32°19' W 090°54'1 1.2
2016-Feb-05 06:33N 32°20' W 090°54'0 0.0
2016-Feb-05 05:33N 32°20' W 090°54'0 0.1
2016-Feb-05 04:33N 32°20' W 090°54'0 0.0
2016-Feb-05 03:33N 32°20' W 090°54'0 0.0
2016-Feb-05 02:33N 32°20' W 090°54'1 0.9
2016-Feb-05 01:33N 32°20' W 090°54'0 0.0
2016-Feb-05 00:33N 32°20' W 090°54'2 1.8
2016-Feb-04 23:33N 32°18' W 090°55'0 0.4
2016-Feb-04 22:33N 32°18' W 090°56'4 3.9
2016-Feb-04 21:33N 32°21' W 090°53'2 1.6
2016-Feb-04 20:33N 32°23' W 090°53'2 2.3
2016-Feb-04 19:33N 32°21' W 090°54'3 3.3
2016-Feb-04 18:33N 32°18' W 090°56'0 0.0
2016-Feb-04 17:33N 32°18' W 090°56'0 0.0
2016-Feb-04 16:33N 32°18' W 090°56'3 2.9
2016-Feb-04 15:33N 32°20' W 090°54'1 0.6
2016-Feb-04 14:33N 32°20' W 090°54'0 0.0
2016-Feb-04 13:33N 32°20' W 090°54'0 0.0
2016-Feb-04 12:33N 32°20' W 090°54'0 0.0
2016-Feb-04 11:33N 32°20' W 090°54'0 0.0
2016-Feb-04 10:33N 32°20' W 090°54'0 0.0
2016-Feb-04 09:33N 32°20' W 090°54'0 0.0
2016-Feb-04 08:33N 32°20' W 090°54'0 0.0
2016-Feb-04 07:33N 32°20' W 090°54'0 0.0
2016-Feb-04 06:33N 32°20' W 090°54'0 0.0
2016-Feb-04 05:33N 32°20' W 090°54'0 0.0
2016-Feb-04 04:33N 32°20' W 090°54'0 0.0
2016-Feb-04 03:33N 32°20' W 090°54'0 0.0
2016-Feb-04 02:33N 32°20' W 090°54'0 0.0
2016-Feb-04 01:33N 32°20' W 090°54'0 0.0
2016-Feb-04 00:33N 32°20' W 090°54'0 0.0
2016-Feb-03 23:33N 32°20' W 090°54'0 0.0
2016-Feb-03 22:33N 32°20' W 090°54'0 0.0
2016-Feb-03 21:33N 32°20' W 090°54'0 0.0
2016-Feb-03 20:33N 32°20' W 090°54'0 0.0
2016-Feb-03 19:33N 32°20' W 090°54'0 0.0
2016-Feb-03 18:33N 32°20' W 090°54'0 0.0
2016-Feb-03 17:33N 32°20' W 090°54'0 0.0
2016-Feb-03 16:33N 32°20' W 090°54'0 0.0
2016-Feb-03 15:33N 32°20' W 090°54'0 0.0
2016-Feb-03 14:33N 32°20' W 090°54'0 0.0
2016-Feb-03 13:33N 32°20' W 090°54'0 0.0
2016-Feb-03 12:33N 32°20' W 090°54'0 0.0
2016-Feb-03 11:33N 32°20' W 090°54'0 0.0
2016-Feb-03 10:33N 32°20' W 090°54'0 0.0
2016-Feb-03 09:33N 32°20' W 090°54'0 0.0
2016-Feb-03 08:33N 32°20' W 090°54'0 0.0
2016-Feb-03 07:33N 32°20' W 090°54'0 0.0
2016-Feb-03 06:33N 32°20' W 090°54'0 0.0
2016-Feb-03 05:33N 32°20' W 090°54'0 0.0
2016-Feb-03 04:33N 32°20' W 090°54'0 0.0
2016-Feb-03 03:33N 32°20' W 090°54'0 0.0
2016-Feb-03 02:33N 32°20' W 090°54'0 0.0
2016-Feb-03 01:33N 32°20' W 090°54'0 0.0
2016-Feb-03 00:33N 32°20' W 090°54'0 0.0
2016-Feb-02 23:33N 32°20' W 090°54'0 0.0
2016-Feb-02 22:33N 32°20' W 090°54'0 0.0
2016-Feb-02 21:33N 32°20' W 090°54'0 0.0
2016-Feb-02 20:33N 32°20' W 090°54'0 0.0
2016-Feb-02 19:33N 32°20' W 090°54'0 0.0
2016-Feb-02 18:33N 32°20' W 090°54'0 0.0
2016-Feb-02 17:33N 32°20' W 090°54'0 0.0
2016-Feb-02 16:33N 32°20' W 090°54'0 0.0
2016-Feb-02 15:33N 32°20' W 090°54'1 0.0
2016-Feb-02 01:19N 32°20' W 090°54'2 1.9
2016-Feb-02 00:19N 32°19' W 090°55'1 1.3
2016-Feb-01 23:33N 32°18' W 090°56'0 0.0
2016-Feb-01 22:33N 32°18' W 090°56'1 0.9
2016-Feb-01 21:34N 32°18' W 090°55'2 2.4
2016-Feb-01 20:33N 32°21' W 090°55'0 0.0
2016-Feb-01 19:33N 32°21' W 090°55'0 0.3
2016-Feb-01 18:33N 32°21' W 090°55'0 0.0
2016-Feb-01 17:33N 32°21' W 090°55'2 1.6
2016-Feb-01 16:33N 32°20' W 090°54'0 0.0
2016-Feb-01 15:33N 32°20' W 090°54'0 0.0
2016-Feb-01 14:33N 32°20' W 090°54'  
Track history (hours):
 
Tides and Currents Weather Stations Pressure Air Temp Water Temp Dewpoint Dewpoint Depression Visibility Wind Speed Wind Dir Waves Ship Positions

Scout

Owner: ERGON MARINE & INDUSTRIAL SUPPLY, VICKSBURG, MS. More information available from US FCC via Universal Licensing System.

Last reported at 2016-Feb-10 02:33 UTC. Time now 2016-Feb-10 02:41 UTC.
Position N 32°20' W 090°54'.

Length 14 m.

Type: Towing. MMSI: 367402890.

Date/timePositionNaut miles runAvg speedWind from/ knotsBaromVisibWave heightAir tempDewpointWater temp
2016-Feb-10 02:33N 32°20' W 090°54'0 0.0
2016-Feb-10 01:34N 32°20' W 090°54'0 0.0
2016-Feb-10 00:34N 32°20' W 090°54'0 0.0
2016-Feb-09 23:34N 32°20' W 090°54'0 0.0
2016-Feb-09 22:34N 32°20' W 090°54'0 0.0
2016-Feb-09 21:34N 32°20' W 090°54'0 0.0
2016-Feb-09 20:34N 32°20' W 090°54'0 0.0
2016-Feb-09 19:34N 32°20' W 090°54'0 0.0
2016-Feb-09 18:34N 32°20' W 090°54'0 0.0
2016-Feb-09 17:34N 32°20' W 090°54'0 0.0
2016-Feb-09 16:34N 32°20' W 090°54'0 0.0
2016-Feb-09 15:33N 32°20' W 090°54'0 0.0
2016-Feb-09 07:34N 32°20' W 090°54'0 0.0
2016-Feb-09 06:34N 32°20' W 090°54'0 0.0
2016-Feb-09 05:33N 32°20' W 090°54'0 0.0
2016-Feb-09 04:33N 32°20' W 090°54'0 0.0
2016-Feb-09 03:34N 32°20' W 090°54'0 0.0
2016-Feb-09 02:34N 32°20' W 090°54'0 0.0
2016-Feb-09 01:33N 32°20' W 090°54'0 0.0
2016-Feb-09 00:34N 32°20' W 090°54'4 0.9
2016-Feb-08 20:25N 32°23' W 090°53'1 1.7
2016-Feb-08 19:33N 32°22' W 090°53'4 3.8
2016-Feb-08 18:33N 32°18' W 090°55'0 0.3
2016-Feb-08 17:33N 32°18' W 090°55'1 1.0
2016-Feb-08 16:33N 32°19' W 090°54'4 4.4
2016-Feb-08 15:33N 32°23' W 090°53'1 0.6
2016-Feb-08 14:33N 32°23' W 090°53'1 0.6
2016-Feb-08 13:33N 32°23' W 090°53'3 2.9
2016-Feb-08 12:33N 32°20' W 090°54'2 2.4
2016-Feb-08 11:33N 32°18' W 090°56'2 1.5
2016-Feb-08 10:33N 32°19' W 090°54'1 0.6
2016-Feb-08 09:33N 32°20' W 090°54'0 0.0
2016-Feb-08 08:33N 32°20' W 090°54'0 0.0
2016-Feb-08 07:33N 32°20' W 090°54'0 0.0
2016-Feb-08 06:33N 32°20' W 090°54'0 0.0
2016-Feb-08 05:33N 32°20' W 090°54'0 0.0
2016-Feb-08 04:33N 32°20' W 090°54'0 0.0
2016-Feb-08 03:33N 32°20' W 090°54'0 0.0
2016-Feb-08 02:33N 32°20' W 090°54'2 2.4
2016-Feb-08 01:33N 32°18' W 090°56'1 0.9
2016-Feb-08 00:33N 32°18' W 090°55'2 1.5
2016-Feb-07 23:33N 32°20' W 090°54'0 0.0
2016-Feb-07 22:33N 32°20' W 090°54'0 0.0
2016-Feb-07 21:33N 32°20' W 090°54'0 0.0
2016-Feb-07 20:33N 32°20' W 090°54'0 0.0
2016-Feb-07 19:33N 32°20' W 090°54'0 0.0
2016-Feb-07 18:33N 32°20' W 090°54'0 0.0
2016-Feb-07 17:33N 32°20' W 090°54'3 3.4
2016-Feb-07 16:33N 32°23' W 090°53'0 0.1
2016-Feb-07 15:33N 32°23' W 090°53'0 0.0
2016-Feb-07 14:33N 32°23' W 090°53'1 0.9
2016-Feb-07 13:33N 32°22' W 090°53'2 2.4
2016-Feb-07 12:33N 32°20' W 090°54'0 0.0
2016-Feb-07 11:34N 32°20' W 090°54'0 0.0
2016-Feb-07 10:33N 32°20' W 090°54'1 0.9
2016-Feb-07 09:33N 32°20' W 090°54'0 0.0
2016-Feb-07 08:33N 32°20' W 090°54'0 0.1
2016-Feb-07 07:33N 32°21' W 090°54'3 3.0
2016-Feb-07 06:33N 32°18' W 090°56'0 0.0
2016-Feb-07 05:33N 32°18' W 090°56'0 0.3
2016-Feb-07 04:33N 32°18' W 090°56'0 0.0
2016-Feb-07 03:34N 32°18' W 090°56'2 2.5
2016-Feb-07 02:34N 32°20' W 090°54'1 0.8
2016-Feb-07 01:33N 32°20' W 090°54'0 0.1
2016-Feb-07 00:34N 32°20' W 090°54'1 0.9
2016-Feb-06 23:33N 32°20' W 090°54'3 3.3
2016-Feb-06 22:33N 32°23' W 090°53'3 2.7
2016-Feb-06 21:33N 32°20' W 090°54'3 2.7
2016-Feb-06 20:33N 32°18' W 090°56'0 0.0
2016-Feb-06 19:33N 32°18' W 090°56'0 0.1
2016-Feb-06 18:33N 32°18' W 090°56'3 2.6
2016-Feb-06 17:33N 32°21' W 090°55'1 1.2
2016-Feb-06 16:33N 32°21' W 090°56'0 0.0
2016-Feb-06 15:33N 32°21' W 090°56'0 0.5
2016-Feb-06 14:33N 32°21' W 090°56'2 1.9
2016-Feb-06 13:33N 32°20' W 090°54'0 0.0
2016-Feb-06 12:33N 32°20' W 090°54'0 0.0
2016-Feb-06 11:33N 32°20' W 090°54'0 0.0
2016-Feb-06 10:33N 32°20' W 090°54'0 0.0
2016-Feb-06 09:33N 32°20' W 090°54'0 0.0
2016-Feb-06 08:33N 32°20' W 090°54'3 3.2
2016-Feb-06 07:32N 32°23' W 090°53'3 3.1
2016-Feb-06 06:33N 32°20' W 090°54'2 2.1
2016-Feb-06 05:33N 32°18' W 090°55'0 0.0
2016-Feb-06 04:33N 32°18' W 090°55'2 1.8
2016-Feb-06 03:33N 32°20' W 090°54'3 3.3
2016-Feb-06 02:33N 32°23' W 090°53'0 0.0
2016-Feb-06 01:33N 32°23' W 090°53'3 3.3
2016-Feb-06 00:34N 32°20' W 090°54'0 0.0
2016-Feb-05 23:34N 32°20' W 090°54'0 0.1
2016-Feb-05 22:33N 32°20' W 090°54'1 1.3
2016-Feb-05 21:34N 32°21' W 090°53'3 3.2
2016-Feb-05 20:34N 32°18' W 090°55'0 0.1
2016-Feb-05 19:34N 32°18' W 090°55'2 1.9
2016-Feb-05 18:34N 32°20' W 090°54'3 2.6
2016-Feb-05 17:34N 32°22' W 090°53'2 2.0
2016-Feb-05 16:33N 32°23' W 090°55'0 0.0
2016-Feb-05 15:34N 32°23' W 090°55'3 2.6
2016-Feb-05 14:33N 32°21' W 090°53'1 1.2
2016-Feb-05 13:33N 32°20' W 090°54'0 0.0
2016-Feb-05 12:33N 32°20' W 090°54'0 0.4
2016-Feb-05 11:33N 32°19' W 090°54'2 1.6
2016-Feb-05 10:33N 32°18' W 090°55'0 0.4
2016-Feb-05 09:33N 32°18' W 090°56'0 0.0
2016-Feb-05 08:33N 32°18' W 090°56'2 2.1
2016-Feb-05 07:33N 32°19' W 090°54'1 1.2
2016-Feb-05 06:33N 32°20' W 090°54'0 0.0
2016-Feb-05 05:33N 32°20' W 090°54'0 0.1
2016-Feb-05 04:33N 32°20' W 090°54'0 0.0
2016-Feb-05 03:33N 32°20' W 090°54'0 0.0
2016-Feb-05 02:33N 32°20' W 090°54'1 0.9
2016-Feb-05 01:33N 32°20' W 090°54'0 0.0
2016-Feb-05 00:33N 32°20' W 090°54'2 1.8
2016-Feb-04 23:33N 32°18' W 090°55'0 0.4
2016-Feb-04 22:33N 32°18' W 090°56'4 3.9
2016-Feb-04 21:33N 32°21' W 090°53'2 1.6
2016-Feb-04 20:33N 32°23' W 090°53'2 2.3
2016-Feb-04 19:33N 32°21' W 090°54'3 3.3
2016-Feb-04 18:33N 32°18' W 090°56'0 0.0
2016-Feb-04 17:33N 32°18' W 090°56'0 0.0
2016-Feb-04 16:33N 32°18' W 090°56'3 2.9
2016-Feb-04 15:33N 32°20' W 090°54'1 0.6
2016-Feb-04 14:33N 32°20' W 090°54'0 0.0
2016-Feb-04 13:33N 32°20' W 090°54'0 0.0
2016-Feb-04 12:33N 32°20' W 090°54'0 0.0
2016-Feb-04 11:33N 32°20' W 090°54'0 0.0
2016-Feb-04 10:33N 32°20' W 090°54'0 0.0
2016-Feb-04 09:33N 32°20' W 090°54'0 0.0
2016-Feb-04 08:33N 32°20' W 090°54'0 0.0
2016-Feb-04 07:33N 32°20' W 090°54'0 0.0
2016-Feb-04 06:33N 32°20' W 090°54'0 0.0
2016-Feb-04 05:33N 32°20' W 090°54'0 0.0
2016-Feb-04 04:33N 32°20' W 090°54'0 0.0
2016-Feb-04 03:33N 32°20' W 090°54'0 0.0
2016-Feb-04 02:33N 32°20' W 090°54'0 0.0
2016-Feb-04 01:33N 32°20' W 090°54'0 0.0
2016-Feb-04 00:33N 32°20' W 090°54'0 0.0
2016-Feb-03 23:33N 32°20' W 090°54'0 0.0
2016-Feb-03 22:33N 32°20' W 090°54'0 0.0
2016-Feb-03 21:33N 32°20' W 090°54'0 0.0
2016-Feb-03 20:33N 32°20' W 090°54'0 0.0
2016-Feb-03 19:33N 32°20' W 090°54'0 0.0
2016-Feb-03 18:33N 32°20' W 090°54'0 0.0
2016-Feb-03 17:33N 32°20' W 090°54'0 0.0
2016-Feb-03 16:33N 32°20' W 090°54'0 0.0
2016-Feb-03 15:33N 32°20' W 090°54'0 0.0
2016-Feb-03 14:33N 32°20' W 090°54'0 0.0
2016-Feb-03 13:33N 32°20' W 090°54'0 0.0
2016-Feb-03 12:33N 32°20' W 090°54'0 0.0
2016-Feb-03 11:33N 32°20' W 090°54'0 0.0
2016-Feb-03 10:33N 32°20' W 090°54'0 0.0
2016-Feb-03 09:33N 32°20' W 090°54'0 0.0
2016-Feb-03 08:33N 32°20' W 090°54'0 0.0
2016-Feb-03 07:33N 32°20' W 090°54'0 0.0
2016-Feb-03 06:33N 32°20' W 090°54'0 0.0
2016-Feb-03 05:33N 32°20' W 090°54'0 0.0
2016-Feb-03 04:33N 32°20' W 090°54'0 0.0
2016-Feb-03 03:33N 32°20' W 090°54'0 0.0
2016-Feb-03 02:33N 32°20' W 090°54'0 0.0
2016-Feb-03 01:33N 32°20' W 090°54'0 0.0
2016-Feb-03 00:33N 32°20' W 090°54'0 0.0
2016-Feb-02 23:33N 32°20' W 090°54'0 0.0
2016-Feb-02 22:33N 32°20' W 090°54'0 0.0
2016-Feb-02 21:33N 32°20' W 090°54'0 0.0
2016-Feb-02 20:33N 32°20' W 090°54'0 0.0
2016-Feb-02 19:33N 32°20' W 090°54'0 0.0
2016-Feb-02 18:33N 32°20' W 090°54'0 0.0
2016-Feb-02 17:33N 32°20' W 090°54'0 0.0
2016-Feb-02 16:33N 32°20' W 090°54'0 0.0
2016-Feb-02 15:33N 32°20' W 090°54'1 0.0
2016-Feb-02 01:19N 32°20' W 090°54'2 1.9
2016-Feb-02 00:19N 32°19' W 090°55'1 1.3
2016-Feb-01 23:33N 32°18' W 090°56'0 0.0
2016-Feb-01 22:33N 32°18' W 090°56'1 0.9
2016-Feb-01 21:34N 32°18' W 090°55'2 2.4
2016-Feb-01 20:33N 32°21' W 090°55'0 0.0
2016-Feb-01 19:33N 32°21' W 090°55'0 0.3
2016-Feb-01 18:33N 32°21' W 090°55'0 0.0
2016-Feb-01 17:33N 32°21' W 090°55'2 1.6
2016-Feb-01 16:33N 32°20' W 090°54'0 0.0
2016-Feb-01 15:33N 32°20' W 090°54'0 0.0
2016-Feb-01 14:33N 32°20' W 090°54'  

Dump ship's entire track history